createdAt,value
2017-10-21T00:00:05.686Z,15.10
2017-10-21T00:02:33.128Z,15.27
2017-10-21T00:05:00.586Z,14.17
2017-10-21T00:07:28.045Z,14.33
2017-10-21T00:09:55.498Z,13.87
2017-10-21T00:12:22.968Z,15.80
2017-10-21T00:14:50.416Z,14.80
2017-10-21T00:17:17.898Z,14.97
2017-10-21T00:19:45.339Z,15.90
2017-10-21T00:22:12.790Z,15.07
2017-10-21T00:24:40.259Z,15.47
2017-10-21T00:27:07.713Z,15.13
2017-10-21T00:29:35.197Z,13.00
2017-10-21T00:32:02.653Z,14.40
2017-10-21T00:34:30.097Z,13.80
2017-10-21T00:36:57.568Z,13.33
2017-10-21T00:39:25.040Z,12.80
2017-10-21T00:41:52.493Z,12.90
2017-10-21T00:44:19.954Z,13.03
2017-10-21T00:46:47.426Z,12.60
2017-10-21T00:49:14.901Z,12.67
2017-10-21T00:51:43.125Z,11.23
2017-10-21T00:54:10.584Z,11.70
2017-10-21T00:56:38.053Z,10.83
2017-10-21T00:59:05.508Z,10.83
2017-10-21T01:01:32.953Z,11.83
2017-10-21T01:04:00.420Z,11.07
2017-10-21T01:06:27.865Z,10.53
2017-10-21T01:08:55.346Z,10.80
2017-10-21T01:11:22.801Z,11.37
2017-10-21T01:13:50.248Z,11.10
2017-10-21T01:16:17.719Z,10.60
2017-10-21T01:18:45.161Z,9.73
2017-10-21T01:21:12.638Z,9.80
2017-10-21T01:23:40.085Z,11.10
2017-10-21T01:26:07.553Z,9.20
2017-10-21T01:28:34.996Z,8.57
2017-10-21T01:31:02.475Z,9.17
2017-10-21T01:33:29.912Z,8.93
2017-10-21T01:35:57.364Z,8.80
2017-10-21T01:38:24.841Z,7.83
2017-10-21T01:40:52.297Z,9.13
2017-10-21T01:43:19.782Z,8.77
2017-10-21T01:45:47.991Z,8.20
2017-10-21T01:48:15.433Z,7.63
2017-10-21T01:50:43.213Z,9.30
2017-10-21T01:53:11.359Z,9.90
2017-10-21T01:55:39.603Z,8.50
2017-10-21T01:58:07.665Z,8.70
2017-10-21T02:00:35.137Z,8.90
2017-10-21T02:03:02.578Z,8.03
2017-10-21T02:05:30.040Z,8.17
2017-10-21T02:07:57.485Z,9.37
2017-10-21T02:10:24.924Z,7.23
2017-10-21T02:12:52.380Z,8.77
2017-10-21T02:15:19.831Z,8.37
2017-10-21T02:17:47.295Z,8.20
2017-10-21T02:20:14.760Z,8.03
2017-10-21T02:22:42.210Z,7.80
2017-10-21T02:25:09.693Z,7.87
2017-10-21T02:27:37.162Z,7.30
2017-10-21T02:30:04.600Z,8.47
2017-10-21T02:32:32.062Z,8.77
2017-10-21T02:34:59.500Z,7.53
2017-10-21T02:37:26.957Z,7.47
2017-10-21T02:39:54.405Z,7.10
2017-10-21T02:42:22.279Z,6.87
2017-10-21T02:44:49.713Z,7.43
2017-10-21T02:47:17.153Z,7.43
2017-10-21T02:49:45.382Z,6.97
2017-10-21T02:52:12.829Z,7.30
2017-10-21T02:54:40.308Z,6.53
2017-10-21T02:57:07.752Z,7.07
2017-10-21T02:59:35.185Z,8.17
2017-10-21T03:02:02.640Z,7.97
2017-10-21T03:04:30.084Z,7.47
2017-10-21T03:06:58.314Z,7.20
2017-10-21T03:09:25.766Z,6.03
2017-10-21T03:11:53.217Z,8.20
2017-10-21T03:14:20.651Z,7.40
2017-10-21T03:16:48.121Z,7.03
2017-10-21T03:19:15.564Z,8.17
2017-10-21T03:21:43.017Z,7.90
2017-10-21T03:24:10.468Z,9.63
2017-10-21T03:26:38.689Z,7.90
2017-10-21T03:29:06.140Z,8.30
2017-10-21T03:31:33.594Z,8.47
2017-10-21T03:34:01.051Z,8.37
2017-10-21T03:36:28.496Z,9.23
2017-10-21T03:38:55.953Z,8.13
2017-10-21T03:41:23.416Z,8.20
2017-10-21T03:43:50.852Z,7.30
2017-10-21T03:46:18.316Z,9.20
2017-10-21T03:48:45.789Z,7.27
2017-10-21T03:51:13.234Z,7.53
2017-10-21T03:53:40.700Z,8.07
2017-10-21T03:56:08.145Z,7.00
2017-10-21T03:58:35.588Z,7.80
2017-10-21T04:01:03.818Z,7.30
2017-10-21T04:03:31.297Z,8.07
2017-10-21T04:05:58.754Z,7.37
2017-10-21T04:08:26.218Z,7.93
2017-10-21T04:10:53.680Z,7.20
2017-10-21T04:13:21.884Z,7.93
2017-10-21T04:15:49.348Z,7.47
2017-10-21T04:18:16.788Z,6.23
2017-10-21T04:20:44.227Z,7.33
2017-10-21T04:23:12.452Z,7.80
2017-10-21T04:25:39.892Z,5.80
2017-10-21T04:28:07.357Z,5.80
2017-10-21T04:30:34.796Z,6.80
2017-10-21T04:33:02.235Z,5.67
2017-10-21T04:35:30.469Z,6.20
2017-10-21T04:37:57.928Z,5.13
2017-10-21T04:40:26.158Z,5.30
2017-10-21T04:42:55.494Z,5.60
2017-10-21T04:45:22.948Z,5.40
2017-10-21T04:47:50.384Z,6.83
2017-10-21T04:50:17.858Z,6.47
2017-10-21T04:52:45.291Z,6.03
2017-10-21T04:55:13.515Z,6.20
2017-10-21T04:57:40.955Z,5.90
2017-10-21T05:00:08.430Z,6.10
2017-10-21T05:02:36.169Z,6.30
2017-10-21T05:05:03.649Z,6.17
2017-10-21T05:07:31.264Z,6.73
2017-10-21T05:09:59.570Z,6.20
2017-10-21T05:12:27.028Z,6.53
2017-10-21T05:14:54.472Z,6.33
2017-10-21T05:17:21.945Z,7.60
2017-10-21T05:19:49.391Z,5.80
2017-10-21T05:22:16.833Z,6.70
2017-10-21T05:24:45.058Z,6.30
2017-10-21T05:27:12.513Z,6.50
2017-10-21T05:29:39.956Z,5.20
2017-10-21T05:32:07.439Z,5.47
2017-10-21T05:34:34.889Z,5.00
2017-10-21T05:37:02.327Z,6.10
2017-10-21T05:39:29.796Z,5.97
2017-10-21T05:41:57.242Z,5.40
2017-10-21T05:44:24.700Z,5.60
2017-10-21T05:46:52.154Z,6.17
2017-10-21T05:49:19.624Z,6.00
2017-10-21T05:51:47.066Z,4.30
2017-10-21T05:54:14.492Z,5.10
2017-10-21T05:56:42.726Z,4.00
2017-10-21T05:59:11.333Z,4.27
2017-10-21T06:01:38.798Z,4.57
2017-10-21T06:04:07.013Z,5.50
2017-10-21T06:06:34.480Z,4.87
2017-10-21T06:09:02.188Z,4.10
2017-10-21T06:11:29.625Z,5.30
2017-10-21T06:13:57.080Z,5.93
2017-10-21T06:16:24.520Z,5.17
2017-10-21T06:18:52.272Z,5.00
2017-10-21T06:21:19.699Z,5.50
2017-10-21T06:23:47.934Z,6.30
2017-10-21T06:26:15.392Z,5.87
2017-10-21T06:28:43.766Z,5.50
2017-10-21T06:31:11.231Z,6.10
2017-10-21T06:33:38.656Z,8.87
2017-10-21T06:36:06.122Z,4.90
2017-10-21T06:38:33.570Z,5.37
2017-10-21T06:41:01.065Z,5.07
2017-10-21T06:43:28.793Z,4.90
2017-10-21T06:45:56.252Z,4.77
2017-10-21T06:48:23.700Z,4.50
2017-10-21T06:50:51.156Z,4.10
2017-10-21T06:53:18.597Z,5.10
2017-10-21T06:55:46.830Z,4.60
2017-10-21T06:58:14.268Z,5.30
2017-10-21T07:00:41.727Z,5.33
2017-10-21T07:03:09.212Z,5.53
2017-10-21T07:05:36.642Z,4.83
2017-10-21T07:08:04.086Z,6.17
2017-10-21T07:10:31.532Z,4.37
2017-10-21T07:12:59.130Z,5.60
2017-10-21T07:15:26.578Z,5.57
2017-10-21T07:17:54.030Z,5.70
2017-10-21T07:20:21.514Z,5.63
2017-10-21T07:22:48.953Z,6.80
2017-10-21T07:25:16.416Z,5.57
2017-10-21T07:27:43.918Z,8.93
2017-10-21T07:30:12.140Z,4.90
2017-10-21T07:32:40.473Z,6.03
2017-10-21T07:35:08.727Z,4.30
2017-10-21T07:37:36.189Z,5.50
2017-10-21T07:40:03.636Z,5.53
2017-10-21T07:42:31.115Z,5.80
2017-10-21T07:44:59.411Z,5.10
2017-10-21T07:47:26.869Z,5.00
2017-10-21T07:49:54.365Z,5.97
2017-10-21T07:52:21.823Z,5.03
2017-10-21T07:54:49.285Z,6.00
2017-10-21T07:57:16.749Z,5.60
2017-10-21T07:59:44.291Z,5.00
2017-10-21T08:02:11.776Z,4.80
2017-10-21T08:04:40.020Z,5.17
2017-10-21T08:07:07.480Z,4.53
2017-10-21T08:09:34.932Z,5.60
2017-10-21T08:12:02.390Z,5.07
2017-10-21T08:14:29.842Z,5.00
2017-10-21T08:16:57.313Z,5.43
2017-10-21T08:19:24.770Z,5.77
2017-10-21T08:21:52.253Z,5.70
2017-10-21T08:24:19.692Z,4.43
2017-10-21T08:26:47.130Z,6.57
2017-10-21T08:29:14.592Z,9.27
2017-10-21T08:31:42.027Z,7.70
2017-10-21T08:34:09.516Z,4.60
2017-10-21T08:36:37.008Z,6.20
2017-10-21T08:39:04.444Z,6.10
2017-10-21T08:41:31.880Z,5.10
2017-10-21T08:43:59.347Z,7.60
2017-10-21T08:46:26.796Z,9.00
2017-10-21T08:48:54.287Z,8.30
2017-10-21T08:51:21.728Z,7.20
2017-10-21T08:53:49.178Z,9.37
2017-10-21T08:56:16.625Z,8.73
2017-10-21T08:58:44.089Z,6.07
2017-10-21T09:01:11.528Z,6.07
2017-10-21T09:03:39.005Z,5.00
2017-10-21T09:06:06.440Z,5.50
2017-10-21T09:08:33.913Z,5.10
2017-10-21T09:11:01.426Z,6.30
2017-10-21T09:13:28.870Z,5.60
2017-10-21T09:15:56.320Z,5.53
2017-10-21T09:18:23.765Z,5.00
2017-10-21T09:20:51.270Z,6.23
2017-10-21T09:23:19.464Z,7.10
2017-10-21T09:25:46.964Z,5.43
2017-10-21T09:28:14.396Z,6.20
2017-10-21T09:30:41.841Z,5.67
2017-10-21T09:33:09.310Z,5.17
2017-10-21T09:35:36.768Z,5.87
2017-10-21T09:38:04.213Z,6.53
2017-10-21T09:40:31.690Z,5.97
2017-10-21T09:42:59.154Z,6.07
2017-10-21T09:45:26.588Z,6.07
2017-10-21T09:47:54.074Z,5.80
2017-10-21T09:50:21.520Z,7.20
2017-10-21T09:52:48.948Z,6.20
2017-10-21T09:55:16.433Z,6.30
2017-10-21T09:57:43.861Z,6.00
2017-10-21T10:00:12.092Z,6.07
2017-10-21T10:02:39.556Z,4.43
2017-10-21T10:05:06.989Z,5.50
2017-10-21T10:07:34.434Z,5.40
2017-10-21T10:10:01.894Z,6.60
2017-10-21T10:12:29.328Z,6.10
2017-10-21T10:14:56.790Z,6.10
2017-10-21T10:17:24.236Z,6.20
2017-10-21T10:19:52.452Z,6.00
2017-10-21T10:22:19.953Z,6.00
2017-10-21T10:24:47.405Z,6.73
2017-10-21T10:27:14.861Z,5.77
2017-10-21T10:29:42.300Z,6.00
2017-10-21T10:32:09.797Z,6.20
2017-10-21T10:34:38.030Z,6.00
2017-10-21T10:37:06.349Z,6.97
2017-10-21T10:39:34.561Z,6.60
2017-10-21T10:42:02.000Z,6.20
2017-10-21T10:44:29.471Z,6.37
2017-10-21T10:46:56.942Z,6.67
2017-10-21T10:49:24.425Z,7.93
2017-10-21T10:51:51.876Z,8.20
2017-10-21T10:54:19.305Z,6.27
2017-10-21T10:56:46.779Z,9.93
2017-10-21T10:59:14.232Z,7.60
2017-10-21T11:01:41.733Z,8.80
2017-10-21T11:04:09.440Z,8.13
2017-10-21T11:06:36.904Z,8.67
2017-10-21T11:09:04.364Z,8.70
2017-10-21T11:11:31.820Z,7.70
2017-10-21T11:13:59.286Z,5.93
2017-10-21T11:16:26.750Z,6.40
2017-10-21T11:18:54.193Z,7.00
2017-10-21T11:21:21.700Z,7.03
2017-10-21T11:23:49.173Z,8.40
2017-10-21T11:26:16.601Z,7.93
2017-10-21T11:28:44.056Z,8.17
2017-10-21T11:31:11.524Z,7.40
2017-10-21T11:33:38.956Z,7.00
2017-10-21T11:36:06.413Z,7.27
2017-10-21T11:38:33.851Z,5.73
2017-10-21T11:41:01.317Z,5.33
2017-10-21T11:43:28.763Z,6.10
2017-10-21T11:45:56.437Z,5.30
2017-10-21T11:48:23.882Z,6.40
2017-10-21T11:50:51.443Z,6.77
2017-10-21T11:53:19.122Z,5.43
2017-10-21T11:55:46.572Z,6.17
2017-10-21T11:58:14.045Z,6.43
2017-10-21T12:00:41.497Z,7.87
2017-10-21T12:03:08.941Z,8.20
2017-10-21T12:05:36.420Z,8.30
2017-10-21T12:08:03.864Z,7.90
2017-10-21T12:10:32.333Z,6.93
2017-10-21T12:13:00.299Z,6.80
2017-10-21T12:15:27.749Z,6.93
2017-10-21T12:17:55.213Z,7.23
2017-10-21T12:20:22.668Z,6.90
2017-10-21T12:22:50.105Z,7.10
2017-10-21T12:25:18.362Z,7.70
2017-10-21T12:27:45.815Z,7.77
2017-10-21T12:30:13.252Z,8.70
2017-10-21T12:32:40.729Z,9.83
2017-10-21T12:35:08.164Z,7.80
2017-10-21T12:37:38.426Z,7.90
2017-10-21T12:40:07.321Z,8.00
2017-10-21T12:42:35.402Z,7.20
2017-10-21T12:45:03.619Z,8.57
2017-10-21T12:47:33.480Z,7.33
2017-10-21T12:50:01.731Z,7.33
2017-10-21T12:52:29.192Z,7.43
2017-10-21T12:54:56.663Z,6.93
2017-10-21T12:57:24.909Z,7.17
2017-10-21T12:59:52.386Z,7.00
2017-10-21T13:02:19.826Z,8.10
2017-10-21T13:04:47.282Z,7.53
2017-10-21T13:07:14.742Z,6.97
2017-10-21T13:09:42.196Z,7.17
2017-10-21T13:12:09.654Z,6.90
2017-10-21T13:14:37.186Z,7.50
2017-10-21T13:17:04.649Z,9.20
2017-10-21T13:19:32.090Z,7.50
2017-10-21T13:21:59.545Z,8.27
2017-10-21T13:24:27.038Z,7.37
2017-10-21T13:26:54.496Z,8.00
2017-10-21T13:29:21.936Z,8.20
2017-10-21T13:31:49.420Z,8.20
2017-10-21T13:34:16.889Z,7.07
2017-10-21T13:36:44.338Z,8.63
2017-10-21T13:39:11.864Z,8.47
2017-10-21T13:41:39.284Z,8.10
2017-10-21T13:44:07.496Z,8.90
2017-10-21T13:46:34.967Z,6.60
2017-10-21T13:49:02.423Z,7.30
2017-10-21T13:51:30.022Z,7.03
2017-10-21T13:53:57.495Z,5.63
2017-10-21T13:56:25.724Z,6.00
2017-10-21T13:58:53.888Z,6.20
2017-10-21T14:01:21.356Z,6.30
2017-10-21T14:03:48.809Z,6.87
2017-10-21T14:06:16.276Z,6.20
2017-10-21T14:08:45.669Z,6.13
2017-10-21T14:11:13.128Z,7.53
2017-10-21T14:13:40.604Z,6.10
2017-10-21T14:16:08.040Z,5.30
2017-10-21T14:18:35.493Z,6.03
2017-10-21T14:21:02.972Z,8.30
2017-10-21T14:23:30.442Z,6.30
2017-10-21T14:25:57.884Z,5.00
2017-10-21T14:28:25.365Z,6.47
2017-10-21T14:30:52.810Z,6.73
2017-10-21T14:33:20.269Z,6.30
2017-10-21T14:35:47.795Z,5.30
2017-10-21T14:38:15.281Z,6.90
2017-10-21T14:40:42.737Z,7.70
2017-10-21T14:43:10.210Z,8.10
2017-10-21T14:45:37.653Z,15.00
2017-10-21T14:48:05.893Z,6.90
2017-10-21T14:50:33.349Z,26.47
2017-10-21T14:53:00.840Z,36.70
2017-10-21T14:55:28.280Z,12.60
2017-10-21T14:57:55.737Z,37.47
2017-10-21T15:00:23.204Z,18.23
2017-10-21T15:02:50.750Z,7.93
2017-10-21T15:05:18.207Z,12.03
2017-10-21T15:07:45.669Z,9.20
2017-10-21T15:10:13.116Z,11.57
2017-10-21T15:12:40.589Z,12.80
2017-10-21T15:15:08.025Z,8.80
2017-10-21T15:17:35.479Z,7.47
2017-10-21T15:20:03.720Z,33.37
2017-10-21T15:22:31.229Z,19.90
2017-10-21T15:24:58.685Z,16.63
2017-10-21T15:27:26.153Z,12.67
2017-10-21T15:29:53.603Z,9.57
2017-10-21T15:32:21.085Z,8.97
2017-10-21T15:34:48.537Z,9.60
2017-10-21T15:37:16.009Z,11.67
2017-10-21T15:39:43.456Z,12.60
2017-10-21T15:42:10.996Z,16.23
2017-10-21T15:44:38.448Z,14.70
2017-10-21T15:47:06.549Z,11.37
2017-10-21T15:49:34.013Z,12.30
2017-10-21T15:52:01.467Z,21.47
2017-10-21T15:54:29.163Z,30.30
2017-10-21T15:56:57.367Z,13.40
2017-10-21T15:59:24.842Z,23.27
2017-10-21T16:01:52.310Z,13.30
2017-10-21T16:07:23.198Z,15.60
2017-10-21T16:09:50.629Z,21.10
2017-10-21T16:12:18.081Z,17.63
2017-10-21T16:14:45.553Z,19.23
2017-10-21T16:17:12.996Z,12.43
2017-10-21T16:19:40.457Z,12.20
2017-10-21T16:22:07.930Z,10.90
2017-10-21T16:24:35.373Z,9.43
2017-10-21T16:27:02.812Z,11.60
2017-10-21T16:29:30.288Z,8.13
2017-10-21T16:31:57.732Z,11.07
2017-10-21T16:34:25.224Z,9.47
2017-10-21T16:36:53.425Z,10.10
2017-10-21T16:39:21.639Z,10.40
2017-10-21T16:41:49.108Z,9.93
2017-10-21T16:44:16.557Z,9.60
2017-10-21T16:46:44.000Z,10.17
2017-10-21T16:49:11.477Z,9.50
2017-10-21T16:51:38.917Z,10.00
2017-10-21T16:54:06.364Z,9.67
2017-10-21T16:56:34.604Z,9.37
2017-10-21T16:59:02.045Z,10.50
2017-10-21T17:01:29.501Z,8.80
2017-10-21T17:03:56.973Z,9.63
2017-10-21T17:06:24.416Z,10.17
2017-10-21T17:08:51.857Z,9.37
2017-10-21T17:11:19.326Z,8.60
2017-10-21T17:13:46.761Z,8.80
2017-10-21T17:16:14.204Z,8.70
2017-10-21T17:18:41.778Z,8.23
2017-10-21T17:21:09.208Z,9.37
2017-10-21T17:23:37.416Z,8.90
2017-10-21T17:26:04.899Z,8.23
2017-10-21T17:28:32.338Z,9.40
2017-10-21T17:30:59.776Z,9.40
2017-10-21T17:33:27.258Z,10.67
2017-10-21T17:35:54.712Z,10.40
2017-10-21T17:38:22.157Z,9.40
2017-10-21T17:40:49.636Z,11.00
2017-10-21T17:43:17.183Z,9.07
2017-10-21T17:45:44.609Z,9.43
2017-10-21T17:48:13.533Z,8.73
2017-10-21T17:50:40.989Z,8.17
2017-10-21T17:53:08.446Z,8.67
2017-10-21T17:55:35.925Z,9.77
2017-10-21T17:58:03.372Z,8.93
2017-10-21T18:00:30.813Z,11.23
2017-10-21T18:02:58.285Z,9.60
2017-10-21T18:05:25.728Z,10.37
2017-10-21T18:07:53.188Z,10.07
2017-10-21T18:10:20.660Z,9.03
2017-10-21T18:12:48.166Z,10.13
2017-10-21T18:15:16.377Z,11.00
2017-10-21T18:17:43.852Z,11.03
2017-10-21T18:20:11.513Z,9.73
2017-10-21T18:22:39.056Z,10.33
2017-10-21T18:25:06.516Z,9.60
2017-10-21T18:27:33.960Z,8.70
2017-10-21T18:30:01.415Z,9.57
2017-10-21T18:32:28.888Z,8.37
2017-10-21T18:34:56.332Z,9.93
2017-10-21T18:37:23.791Z,10.50
2017-10-21T18:39:51.270Z,10.77
2017-10-21T18:42:20.690Z,8.33
2017-10-21T18:44:48.125Z,8.77
2017-10-21T18:47:15.598Z,12.23
2017-10-21T18:49:43.052Z,9.93
2017-10-21T18:52:10.496Z,9.00
2017-10-21T18:54:37.983Z,10.67
2017-10-21T18:57:05.424Z,9.20
2017-10-21T18:59:32.968Z,8.83
2017-10-21T19:02:00.425Z,8.30
2017-10-21T19:04:27.872Z,8.70
2017-10-21T19:06:55.313Z,9.20
2017-10-21T19:09:23.552Z,8.07
2017-10-21T19:11:51.021Z,8.77
2017-10-21T19:14:18.462Z,8.30
2017-10-21T19:16:45.902Z,7.33
2017-10-21T19:19:13.370Z,8.83
2017-10-21T19:21:40.907Z,8.10
2017-10-21T19:24:08.349Z,9.10
2017-10-21T19:26:35.791Z,8.47
2017-10-21T19:29:04.033Z,9.10
2017-10-21T19:31:31.464Z,8.23
2017-10-21T19:33:58.909Z,8.60
2017-10-21T19:36:26.385Z,8.93
2017-10-21T19:38:53.837Z,9.57
2017-10-21T19:41:21.276Z,8.83
2017-10-21T19:43:48.757Z,9.43
2017-10-21T19:46:16.197Z,9.10
2017-10-21T19:48:43.654Z,10.30
2017-10-21T19:51:11.166Z,9.87
2017-10-21T19:53:38.675Z,8.93
2017-10-21T19:56:06.109Z,10.20
2017-10-21T19:58:34.347Z,11.17
2017-10-21T20:01:01.784Z,9.47
2017-10-21T20:03:29.534Z,10.13
2017-10-21T20:05:56.977Z,17.37
2017-10-21T20:08:24.429Z,40.33
2017-10-21T20:10:51.944Z,45.27
2017-10-21T20:13:19.385Z,39.60
2017-10-21T20:15:46.837Z,31.43
2017-10-21T20:18:14.317Z,24.50
2017-10-21T20:20:41.749Z,23.27
2017-10-21T20:23:09.232Z,20.00
2017-10-21T20:25:36.711Z,14.70
2017-10-21T20:28:04.132Z,14.03
2017-10-21T20:30:31.616Z,12.07
2017-10-21T20:32:59.081Z,12.00
2017-10-21T20:35:26.528Z,11.30
2017-10-21T20:37:54.008Z,10.37
2017-10-21T20:40:22.247Z,12.70
2017-10-21T20:42:49.699Z,11.57
2017-10-21T20:45:17.172Z,12.60
2017-10-21T20:47:44.852Z,13.93
2017-10-21T20:50:12.305Z,11.50
2017-10-21T20:52:39.776Z,12.43
2017-10-21T20:55:07.985Z,13.33
2017-10-21T20:57:35.441Z,11.67
2017-10-21T21:00:03.205Z,10.30
2017-10-21T21:02:30.660Z,10.87
2017-10-21T21:04:58.105Z,10.40
2017-10-21T21:07:26.027Z,10.97
2017-10-21T21:09:53.481Z,11.20
2017-10-21T21:12:20.923Z,9.70
2017-10-21T21:14:48.401Z,9.30
2017-10-21T21:17:15.853Z,9.97
2017-10-21T21:19:43.297Z,10.90
2017-10-21T21:22:10.837Z,10.20
2017-10-21T21:24:38.264Z,9.50
2017-10-21T21:27:06.484Z,8.53
2017-10-21T21:29:33.961Z,10.07
2017-10-21T21:32:01.408Z,9.73
2017-10-21T21:34:28.852Z,10.80
2017-10-21T21:36:56.327Z,9.53
2017-10-21T21:39:23.813Z,9.27
2017-10-21T21:41:51.244Z,9.00
2017-10-21T21:44:18.695Z,9.70
2017-10-21T21:46:46.440Z,9.90
2017-10-21T21:49:13.885Z,9.40
2017-10-21T21:51:41.329Z,9.53
2017-10-21T21:54:09.577Z,10.07
2017-10-21T21:56:37.012Z,10.00
2017-10-21T21:59:04.748Z,9.70
2017-10-21T22:01:32.232Z,11.30
2017-10-21T22:03:59.672Z,9.33
2017-10-21T22:06:27.117Z,10.20
2017-10-21T22:08:54.601Z,10.60
2017-10-21T22:11:22.045Z,10.23
2017-10-21T22:13:49.486Z,9.20
2017-10-21T22:16:16.969Z,10.03
2017-10-21T22:18:44.412Z,10.47
2017-10-21T22:21:11.876Z,9.47
2017-10-21T22:23:39.331Z,10.70
2017-10-21T22:26:06.805Z,9.10
2017-10-21T22:28:35.017Z,10.10
2017-10-21T22:31:02.463Z,11.00
2017-10-21T22:33:29.936Z,10.27
2017-10-21T22:35:58.145Z,9.90
2017-10-21T22:38:25.589Z,9.53
2017-10-21T22:40:53.869Z,9.67
2017-10-21T22:43:21.325Z,9.93
2017-10-21T22:45:48.760Z,8.87
2017-10-21T22:48:17.009Z,10.57
2017-10-21T22:50:44.449Z,9.80
2017-10-21T22:53:11.891Z,11.40
2017-10-21T22:55:39.357Z,8.67
2017-10-21T22:58:06.817Z,9.93
2017-10-21T23:00:34.292Z,9.07
2017-10-21T23:03:01.732Z,9.60
2017-10-21T23:05:29.173Z,8.80
2017-10-21T23:07:56.646Z,10.47
2017-10-21T23:10:24.089Z,8.80
2017-10-21T23:12:51.547Z,10.90
2017-10-21T23:15:19.024Z,10.33
2017-10-21T23:17:46.467Z,8.10
2017-10-21T23:20:13.926Z,10.57
2017-10-21T23:22:41.393Z,9.97
2017-10-21T23:25:08.866Z,9.70
2017-10-21T23:27:36.314Z,9.93
2017-10-21T23:30:03.782Z,11.97
2017-10-21T23:32:32.005Z,11.00
2017-10-21T23:35:00.214Z,10.50
2017-10-21T23:37:27.685Z,9.60
2017-10-21T23:39:55.128Z,9.50
2017-10-21T23:42:22.573Z,9.30
2017-10-21T23:44:50.044Z,10.10
2017-10-21T23:47:17.487Z,9.53
2017-10-21T23:49:44.924Z,9.60
2017-10-21T23:52:13.172Z,10.53
2017-10-21T23:54:40.615Z,11.50
2017-10-21T23:57:08.095Z,9.90
2017-10-21T23:59:35.601Z,9.10
